Emmonak Airport Emmonak US
ICAO: PAEM
IATA:
Category: Medium
Scheduled Services:

Elevation: 13 ft
TransAlt. 18000 ft.

Airport Communications:
AWOS 3:135.35
ANCHORAGE CNTR:132.5
CTAF:122.9
KENAI RDO:122.55
TWEB:177.8

PAEM Zoom In..

If you have problems with the map follow the link
https://www.worldairports.se/pages/airport.php?
ICAO=PAEM

Runways:

(A) RW 16 length 4601 ft width 100 ft
---- / hdg 163

(B) RW 34 length 4601 ft width 100 ft
---- / hdg 343

Location; PAEM
Day. 21 / Time. 04.56 Zulu
* Altimeter: 29.54
* Temperature: 02° c. 35.6°f.
* Wind from: 020° Speed 07 kn.
Dewpoint: 02° c.
Visibility: 10 Statute Miles.
Clouds: Clear (automated report).

PAEM 210456Z AUTO 02007KT 10SM CLR 02/02 A2954 RMK AO2 SLP061 T00220017 FZRANO


Wind From 020°
Speed 07 kn.

 
 
jpsmedia.com for Web Design worldairports.se 2018   terms of use